Flight Track Log - Related Links

Times and Time Zones

All times are in EDT time to prevent confusion due to time zone crossing. See the DAL1903 flight status page for this flight to view local times or setup timezone preferences in your user account.

Time Position Orientation Groundspeed Altitude Reporting Facility
EDT Latitude Longitude Course Direction KTS MPH feet Rate Location/Type
Fri 11:32:48 AM 40.8167 -73.8667 270° West 190 219 1,600  Level New York TRACON
Fri 11:33:48 AM 40.8667 -73.9000 333° Northwest 227 261 4,700 2,900 Climbing New York TRACON
Fri 11:34:48 AM 40.8333 -73.9667 237° Southwest 233 268 7,400 2,750 Climbing New York TRACON
Fri 11:35:00 AM 40.3233 -74.0801 201° Southwest  Level FlightAware Approximate
Fri 11:35:48 AM 40.7833 -74.0167 217° Southwest 269 310 10,200  Level New York TRACON
Fri 11:36:00 AM 40.2121 -74.1379 217° Southwest  Level FlightAware Approximate
Fri 11:36:48 AM 40.7167 -74.0667 210° Southwest 282 325 12,000  Level New York TRACON
Fri 11:37:00 AM 40.1045 -74.1955 217° Southwest  Level FlightAware Approximate
Fri 11:37:48 AM 40.6500 -74.1333 217° Southwest 282 325 12,700  Level New York TRACON
Fri 11:38:00 AM 40.0000 -74.2466 270° West  Level FlightAware Approximate
Fri 11:38:48 AM 40.5833 -74.1833 210° Southwest 284 327 13,000  Level New York TRACON
Fri 11:39:48 AM 40.5667 -74.2667 255° West 272 313 13,000  Level New York TRACON
Fri 11:40:48 AM 40.5333 -74.3667 246° West 277 319 13,000  Level New York TRACON
Fri 11:41:42 AM 40.5000 -74.4167 229° Southwest 279 321 13,000  Level New York TRACON
Fri 11:42:48 AM 40.4167 -74.4833 211° Southwest 294 338 13,000  Level New York TRACON
Fri 11:43:42 AM 40.3667 -74.4167 135° Southeast 323 372 13,000  Level New York TRACON
Fri 11:44:42 AM 40.3833 -74.3000 79° East 323 372 13,000 450 Level New York TRACON
Fri 11:45:42 AM 40.4000 -74.1833 79° East 325 374 13,900 500 Climbing New York TRACON
Fri 11:46:42 AM 40.4167 -74.0667 79° East 332 382 14,000 50 Climbing New York TRACON
Fri 11:47:42 AM 40.3333 -74.0000 149° Southeast 318 366 14,000 450 Level New York TRACON
Fri 11:48:42 AM 40.2500 -74.0000 180° South 306 352 14,900 1,424 Climbing New York TRACON
Fri 11:49:40 AM 40.1992 -74.0564 220° Southwest 305 351 16,800 1,006 Climbing New York Center
Fri 11:51:17 AM 40.0944 -74.1622 218° Southwest 307 353 17,500 759 Climbing Washington Center
Fri 11:52:18 AM 40.0164 -74.2453 219° Southwest 337 388 18,800 1,736 Climbing Washington Center
Fri 11:53:18 AM 39.9278 -74.3333 217° Southwest 362 417 21,000 1,983 Climbing Washington Center
Fri 11:54:19 AM 39.8369 -74.4161 215° Southwest 381 438 22,800 1,609 Climbing Washington Center
Fri 11:56:17 AM 39.6783 -74.6156 224° Southwest 398 458 25,800 1,307 Climbing Washington Center
Fri 11:57:18 AM 39.5958 -74.7297 227° Southwest 417 480 26,700 1,230 Climbing Washington Center
Fri 11:58:19 AM 39.5069 -74.8464 225° Southwest 441 507 28,300 1,537 Climbing Washington Center
Fri 11:59:19 AM 39.4200 -74.9575 225° Southwest 441 507 29,800 1,424 Climbing Washington Center
Fri 12:00:17 PM 39.3331 -75.0711 225° Southwest 441 507 31,100 1,119 Climbing Washington Center
Fri 12:01:17 PM 39.2231 -75.1494 209° Southwest 441 507 32,000 446 Climbing Washington Center
Fri 12:02:18 PM 39.1022 -75.1983 197° South 445 512 32,000 298 Level Washington Center
Fri 12:03:18 PM 38.9775 -75.2525 199° South 456 525 32,600 787 Climbing Washington Center
Fri 12:04:20 PM 38.8544 -75.3011 197° South 467 537 33,600 650 Climbing Washington Center
Fri 12:05:18 PM 38.7358 -75.3494 198° South 467 537 33,900 203 Climbing Washington Center
Fri 12:06:18 PM 38.6150 -75.4031 199° South 462 532 34,000 50 Climbing Washington Center
Fri 12:07:19 PM 38.4919 -75.4539 198° South 462 532 34,000  Level Washington Center
Fri 12:08:19 PM 38.3692 -75.4989 196° South 462 532 34,000  Level Washington Center
Fri 12:09:17 PM 38.2564 -75.5758 208° Southwest 462 532 34,000  Level Washington Center
Fri 12:10:18 PM 38.1503 -75.6525 210° Southwest 452 520 34,000  Level Washington Center
Fri 12:11:18 PM 38.0439 -75.7314 210° Southwest 452 520 34,000  Level Washington Center
Fri 12:12:19 PM 37.9353 -75.8078 209° Southwest 452 520 34,000  Level Washington Center
Fri 12:13:19 PM 37.8244 -75.8808 208° Southwest 447 514 34,000  Level Washington Center
Fri 12:14:19 PM 37.7200 -75.9647 212° Southwest 447 514 34,000  Level Washington Center
Fri 12:15:18 PM 37.6114 -76.0428 210° Southwest 452 520 34,000  Level Washington Center
Fri 12:16:19 PM 37.5025 -76.1153 208° Southwest 452 520 34,000  Level Washington Center
Fri 12:17:20 PM 37.3917 -76.1878 207° Southwest 452 520 34,000  Level Washington Center
Fri 12:18:17 PM 37.2808 -76.2653 209° Southwest 447 514 34,000  Level Washington Center
Fri 12:19:18 PM 37.1697 -76.3400 208° Southwest 447 514 34,000  Level Washington Center
Fri 12:20:19 PM 37.0608 -76.4169 209° Southwest 452 520 34,000  Level Washington Center
Fri 12:21:19 PM 36.9539 -76.4936 210° Southwest 452 520 34,000  Level Washington Center
Fri 12:22:20 PM 36.8489 -76.5731 211° Southwest 452 520 34,000  Level Washington Center
Fri 12:23:17 PM 36.7481 -76.6678 217° Southwest 452 520 34,000  Level Washington Center
Fri 12:24:18 PM 36.6511 -76.7594 217° Southwest 452 520 34,000  Level Washington Center
Fri 12:25:19 PM 36.5522 -76.8486 216° Southwest 452 520 34,000  Level Washington Center
Fri 12:26:19 PM 36.4511 -76.9400 216° Southwest 452 520 34,000  Level Washington Center
Fri 12:27:20 PM 36.3625 -77.0236 217° Southwest 452 520 34,000  Level Washington Center
Fri 12:28:17 PM 36.2633 -77.1119 216° Southwest 452 520 34,000  Level Washington Center
Fri 12:29:18 PM 36.1617 -77.2128 219° Southwest 437 503 34,000  Level Washington Center
Fri 12:30:19 PM 36.0603 -77.3033 216° Southwest 437 503 34,000  Level Washington Center
Fri 12:31:19 PM 35.9631 -77.3908 216° Southwest 443 510 34,000  Level Washington Center
Fri 12:32:17 PM 35.8658 -77.4811 217° Southwest 443 510 34,000  Level Washington Center
Fri 12:33:17 PM 35.7769 -77.5583 215° Southwest 443 510 34,000  Level Washington Center
Fri 12:34:19 PM 35.6794 -77.6453 216° Southwest 443 510 34,000  Level Washington Center
Fri 12:35:17 PM 35.5839 -77.7322 217° Southwest 443 510 34,000  Level Washington Center
Fri 12:36:17 PM 35.4864 -77.8164 215° Southwest 443 510 34,000  Level Washington Center
Fri 12:37:18 PM 35.3889 -77.9003 215° Southwest 436 502 34,000  Level Washington Center
Fri 12:38:18 PM 35.2933 -77.9867 216° Southwest 436 502 34,000  Level Washington Center
Fri 12:39:18 PM 35.1956 -78.0703 215° Southwest 436 502 34,000  Level Washington Center
Fri 12:40:19 PM 35.1000 -78.1561 216° Southwest 436 502 34,000  Level Washington Center
Fri 12:41:17 PM 35.0022 -78.2417 216° Southwest 436 502 34,000  Level Washington Center
Fri 12:43:03 PM 34.8325 -78.3933 216° Southwest 424 488 34,000  Level Jacksonville Center
Fri 12:44:03 PM 34.7333 -78.4769 215° Southwest 429 494 34,000  Level Jacksonville Center
Fri 12:45:03 PM 34.6361 -78.5625 216° Southwest 429 494 34,000  Level Jacksonville Center
Fri 12:47:03 PM 34.4439 -78.7358 217° Southwest 434 499 34,000  Level Jacksonville Center
Fri 12:48:03 PM 34.3464 -78.8211 216° Southwest 439 505 34,000  Level Jacksonville Center
Fri 12:49:03 PM 34.2492 -78.9058 216° Southwest 439 505 34,000  Level Jacksonville Center
Fri 12:50:03 PM 34.1475 -78.9883 214° Southwest 439 505 34,000  Level Jacksonville Center
Fri 12:51:03 PM 34.0436 -79.0733 214° Southwest 439 505 34,000  Level Jacksonville Center
Fri 12:52:03 PM 33.9439 -79.1578 215° Southwest 444 511 34,000  Level Jacksonville Center
Fri 12:53:03 PM 33.8419 -79.2419 214° Southwest 444 511 34,000  Level Jacksonville Center
Fri 12:54:03 PM 33.7422 -79.3261 215° Southwest 444 511 34,000  Level Jacksonville Center
Fri 12:55:03 PM 33.6361 -79.4153 215° Southwest 436 502 34,000  Level Jacksonville Center
Fri 12:56:03 PM 33.5383 -79.5011 216° Southwest 436 502 34,000 -50 Level Jacksonville Center
Fri 12:57:03 PM 33.4383 -79.5847 215° Southwest 436 502 33,900  Descending Jacksonville Center
Fri 12:58:03 PM 33.3383 -79.6681 215° Southwest 436 502 34,000 50 Climbing Jacksonville Center
Fri 12:59:03 PM 33.2361 -79.7561 216° Southwest 441 507 34,000  Level Jacksonville Center
Fri 01:00:03 PM 33.1339 -79.8392 214° Southwest 446 513 34,000  Level Jacksonville Center
Fri 01:01:03 PM 33.0336 -79.9242 215° Southwest 446 513 34,000  Level Jacksonville Center
Fri 01:02:03 PM 32.9353 -80.0117 217° Southwest 446 513 34,000 -50 Level Jacksonville Center
Fri 01:03:03 PM 32.8456 -80.1061 221° Southwest 446 513 33,900  Descending Jacksonville Center
Fri 01:04:03 PM 32.7681 -80.1922 223° Southwest 440 506 34,000 50 Climbing Jacksonville Center
Fri 01:05:03 PM 32.6825 -80.2861 223° Southwest 434 499 34,000  Level Jacksonville Center
Fri 01:06:03 PM 32.5947 -80.3825 223° Southwest 434 499 34,000  Level Jacksonville Center
Fri 01:07:03 PM 32.5067 -80.4761 222° Southwest 434 499 34,000  Level Jacksonville Center
Fri 01:08:03 PM 32.4186 -80.5694 222° Southwest 434 499 34,000  Level Jacksonville Center
Fri 01:09:03 PM 32.3306 -80.6650 223° Southwest 434 499 34,000  Level Jacksonville Center
Fri 01:10:03 PM 32.2447 -80.7581 223° Southwest 434 499 34,000  Level Jacksonville Center
Fri 01:11:03 PM 32.1481 -80.8608 222° Southwest 434 499 34,000  Level Jacksonville Center
Fri 01:12:03 PM 32.0578 -80.9536 221° Southwest 435 501 34,000  Level Jacksonville Center
Fri 01:13:03 PM 31.9711 -81.0314 217° Southwest 435 501 34,000  Level Jacksonville Center
Fri 01:14:03 PM 31.8619 -81.1192 214° Southwest 448 516 34,000  Level Jacksonville Center
Fri 01:15:03 PM 31.7606 -81.1969 213° Southwest 435 501 34,000  Level Jacksonville Center
Fri 01:16:03 PM 31.6717 -81.2692 215° Southwest 435 501 34,000  Level Jacksonville Center
Fri 01:17:03 PM 31.5622 -81.3542 214° Southwest 435 501 34,000  Level Jacksonville Center
Fri 01:18:03 PM 31.4608 -81.4311 213° Southwest 435 501 34,000  Level Jacksonville Center
Fri 01:19:03 PM 31.3717 -81.5008 214° Southwest 435 501 34,000  Level Jacksonville Center
Fri 01:20:03 PM 31.2703 -81.5872 216° Southwest 441 507 34,000  Level Jacksonville Center
Fri 01:21:03 PM 31.1689 -81.6592 211° Southwest 441 507 34,000  Level Jacksonville Center
Fri 01:22:03 PM 31.0503 -81.7142 202° Southwest 435 501 34,000  Level Jacksonville Center
Fri 01:23:03 PM 30.9317 -81.7592 198° South 445 512 34,000 -50 Level Jacksonville Center
Fri 01:24:03 PM 30.8111 -81.8089 200° South 457 526 33,900  Descending Jacksonville Center
Fri 01:25:04 PM 30.6925 -81.8611 201° Southwest 457 526 34,000  Climbing Jacksonville Center
Fri 01:26:03 PM 30.5739 -81.9106 200° South 462 532 33,900  Descending Jacksonville Center
Fri 01:27:03 PM 30.4511 -81.9553 197° South 462 532 34,000 50 Climbing Jacksonville Center
Fri 01:28:03 PM 30.3322 -82.0044 200° South 462 532 34,000  Level Jacksonville Center
Fri 01:29:03 PM 30.2136 -82.0536 200° South 462 532 34,000 -100 Level Jacksonville Center
Fri 01:30:03 PM 30.0950 -82.1028 200° South 462 532 33,800 -1,100 Descending Jacksonville Center
Fri 01:31:03 PM 29.9597 -82.1614 201° Southwest 468 539 31,800 -1,750 Descending Jacksonville Center
Fri 01:32:03 PM 29.8408 -82.2125 200° South 468 539 30,300 -2,100 Descending Jacksonville Center
Fri 01:33:03 PM 29.7347 -82.2517 198° South 468 539 27,600 -1,636 Descending Jacksonville Center
Fri 01:34:04 PM 29.6011 -82.2594 183° South 468 539 27,000 -1,150 Descending Jacksonville Center
Fri 01:35:03 PM 29.4672 -82.2414 173° South 474 545 25,300 -2,218 Descending Jacksonville Center
Fri 01:36:03 PM 29.3419 -82.2208 172° South 474 545 22,600 -2,400 Descending Jacksonville Center
Fri 01:37:03 PM 29.2186 -82.2003 172° South 462 532 20,500 -1,950 Descending Jacksonville Center
Fri 01:38:03 PM 29.0997 -82.1844 173° South 451 519 18,700 -1,550 Descending Jacksonville Center
Fri 01:39:03 PM 28.9806 -82.1639 171° South 443 510 17,400 -1,500 Descending Jacksonville Center
Fri 01:40:03 PM 28.8531 -82.1458 173° South 436 502 15,700 -1,650 Descending Jacksonville Center
Fri 01:41:03 PM 28.7342 -82.1303 173° South 430 495 14,100 -1,500 Descending Jacksonville Center
Fri 01:43:03 PM 28.5000 -82.1000 174° South 398 458 11,200 -1,033 Descending Tampa TRACON
Fri 01:44:03 PM 28.4000 -82.0833 172° South 391 450 11,000 -100 Descending Tampa TRACON
Fri 01:45:03 PM 28.3000 -82.0667 172° South 388 447 11,000  Level Tampa TRACON
Fri 01:45:57 PM 28.2000 -82.0500 172° South 386 444 11,000 -300 Level Tampa TRACON
Fri 01:47:03 PM 28.0833 -82.0333 173° South 373 429 10,400 -476 Descending Tampa TRACON
Fri 01:48:03 PM 28.0000 -82.0167 170° South 312 359 10,000 -1,000 Descending Tampa TRACON
Fri 01:49:03 PM 27.9333 -82.0667 214° Southwest 293 337 8,400 -1,650 Descending Tampa TRACON
Fri 01:50:03 PM 27.8667 -82.1333 221° Southwest 289 333 6,700 -1,200 Descending Tampa TRACON
Fri 01:51:03 PM 27.8000 -82.2000 222° Southwest 287 330 6,000 -365 Descending Tampa TRACON
Fri 01:51:58 PM 27.7500 -82.2500 222° Southwest 288 331 6,000  Level Tampa TRACON
Fri 01:52:58 PM 27.7000 -82.3000 222° Southwest 284 327 6,000 -48 Level Tampa TRACON
Fri 01:54:03 PM 27.6333 -82.3667 222° Southwest 288 331 5,900 -571 Descending Tampa TRACON
Fri 01:55:04 PM 27.5500 -82.4000 200° South 280 322 4,800 -942 Descending Tampa TRACON
Fri 01:56:04 PM 27.4833 -82.4333 204° Southwest 271 312 4,000 -1,190 Descending Tampa TRACON
Fri 01:57:10 PM 27.4000 -82.4333 180° South 260 299 2,300 -1,100 Descending Tampa TRACON
Fri 01:58:04 PM 27.3500 -82.4500 196° South 217 250 1,800 -556 Descending Tampa TRACON

Login

Don't have an account? Register now (free) for customized features, flight alerts, and more!